Time;durP1;ratioP1;P1;durP2;ratioP2;P2;SDS_P1;SDS_P2;PMS_P1;PMS_P2;Temp;Humidity;BMP_temperature;BMP_pressure;BME280_temperature;BME280_humidity;BME280_pressure;Samples;Min_cycle;Max_cycle;Signal;HPM_P1;HPM_P2
2022/07/09 00:00:48;;;;;;;7.47;4.37;;;16.50;1.00;;;;;;5022519;28;20521;-73
2022/07/09 00:03:13;;;;;;;4.70;3.70;;;16.50;1.00;;;;;;5013605;28;20684;-72
2022/07/09 00:05:39;;;;;;;5.10;3.77;;;18.20;1.00;;;;;;5010071;28;20232;-71
2022/07/09 00:08:04;;;;;;;5.60;4.10;;;16.60;1.00;;;;;;5012051;28;20174;-73
2022/07/09 00:10:30;;;;;;;9.50;4.47;;;16.60;1.00;;;;;;5020329;28;20175;-72
2022/07/09 00:12:56;;;;;;;10.60;4.43;;;16.60;1.00;;;;;;5024064;28;20242;-72
2022/07/09 00:15:22;;;;;;;6.43;4.17;;;16.60;1.00;;;;;;5010173;28;20655;-72
2022/07/09 00:17:47;;;;;;;7.73;4.10;;;16.50;1.00;;;;;;5007439;28;20285;-73
2022/07/09 00:20:13;;;;;;;6.63;4.00;;;16.40;1.00;;;;;;5004731;28;20210;-72
2022/07/09 00:22:38;;;;;;;10.10;4.23;;;16.30;1.00;;;;;;5006642;28;20592;-73
2022/07/09 00:25:04;;;;;;;6.03;4.10;;;16.20;1.00;;;;;;5006148;28;20221;-72
2022/07/09 00:27:30;;;;;;;8.17;4.70;;;16.20;1.00;;;;;;4999348;28;20223;-73
2022/07/09 00:29:56;;;;;;;6.93;4.90;;;;;;;;;;5017308;28;20185;-72
2022/07/09 00:32:21;;;;;;;6.37;4.37;;;16.20;1.00;;;;;;5001459;28;20209;-72
2022/07/09 00:34:47;;;;;;;7.50;4.50;;;16.00;1.00;;;;;;4999944;28;20194;-72
2022/07/09 00:37:12;;;;;;;8.40;4.57;;;16.10;1.00;;;;;;5015338;28;20442;-72
2022/07/09 00:39:38;;;;;;;6.67;4.70;;;16.00;1.00;;;;;;5014722;28;20178;-73
2022/07/09 00:42:11;;;;;;;10.20;4.53;;;15.90;1.00;;;;;;5016334;28;20274;-72
2022/07/09 00:44:37;;;;;;;9.33;3.87;;;15.90;1.00;;;;;;5009997;28;20174;-72
2022/07/09 00:47:07;;;;;;;6.90;4.03;;;15.90;1.00;;;;;;5007062;28;20586;-72
2022/07/09 00:49:37;;;;;;;6.43;4.63;;;15.80;1.00;;;;;;5006070;28;20448;-73
2022/07/09 00:52:04;;;;;;;5.23;3.73;;;15.80;1.00;;;;;;5000001;28;20465;-74
2022/07/09 00:54:30;;;;;;;7.63;4.00;;;15.80;1.00;;;;;;5009233;28;20408;-72
2022/07/09 00:56:56;;;;;;;9.20;3.70;;;15.80;1.00;;;;;;5008341;28;20901;-72
2022/07/09 00:59:22;;;;;;;4.87;4.00;;;15.60;1.00;;;;;;4996378;28;20178;-73
2022/07/09 01:01:50;;;;;;;8.80;3.70;;;15.60;1.00;;;;;;5007215;28;20178;-72
2022/07/09 01:04:16;;;;;;;8.40;3.63;;;15.50;1.00;;;;;;5008858;28;20416;-73
2022/07/09 01:06:41;;;;;;;5.63;3.93;;;15.40;1.00;;;;;;5014437;28;20469;-72
2022/07/09 01:09:07;;;;;;;6.67;4.33;;;15.40;1.00;;;;;;5029069;28;20169;-72
2022/07/09 01:11:33;;;;;;;8.30;3.80;;;15.40;1.00;;;;;;5008743;28;20286;-72
2022/07/09 01:13:59;;;;;;;9.20;4.07;;;15.40;1.00;;;;;;5020368;28;20500;-72
2022/07/09 01:16:35;;;;;;;9.67;4.30;;;15.90;1.00;;;;;;4993315;28;20217;-72
2022/07/09 01:19:01;;;;;;;6.17;3.70;;;15.30;1.00;;;;;;4989908;28;20410;-72
2022/07/09 01:21:27;;;;;;;6.73;4.33;;;15.30;1.00;;;;;;5007397;28;20432;-73
2022/07/09 01:23:52;;;;;;;4.63;3.70;;;15.30;1.00;;;;;;5008220;28;20190;-74
2022/07/09 01:26:19;;;;;;;6.13;4.00;;;15.30;1.00;;;;;;5006643;28;20445;-72
2022/07/09 01:28:46;;;;;;;11.60;4.30;;;15.30;1.00;;;;;;5009700;28;20194;-72
2022/07/09 01:31:12;;;;;;;5.00;3.90;;;15.30;1.00;;;;;;5017192;28;20936;-72
2022/07/09 01:33:38;;;;;;;6.73;3.80;;;15.30;1.00;;;;;;5007022;28;20421;-72
2022/07/09 01:36:04;;;;;;;5.20;4.00;;;15.30;1.00;;;;;;4991295;28;20448;-73
2022/07/09 01:38:29;;;;;;;9.23;4.37;;;15.30;1.00;;;;;;5006549;28;20402;-73
2022/07/09 01:40:55;;;;;;;7.97;4.37;;;15.30;1.00;;;;;;5002785;28;20179;-72
2022/07/09 01:43:20;;;;;;;5.23;3.80;;;15.30;1.00;;;;;;5007183;28;20472;-72
2022/07/09 01:45:47;;;;;;;6.07;4.80;;;15.40;1.00;;;;;;5008104;28;20178;-74
2022/07/09 01:48:13;;;;;;;6.63;4.10;;;15.50;1.00;;;;;;5006397;28;20202;-72
2022/07/09 01:50:39;;;;;;;5.93;4.00;;;15.50;1.00;;;;;;5007150;28;20465;-72
2022/07/09 01:53:04;;;;;;;6.47;4.50;;;15.50;1.00;;;;;;5007044;28;20174;-72
2022/07/09 01:55:30;;;;;;;6.43;3.97;;;15.50;1.00;;;;;;5006800;28;20217;-71
2022/07/09 01:57:56;;;;;;;6.10;4.00;;;15.50;1.00;;;;;;5007976;28;20201;-72
2022/07/09 02:00:23;;;;;;;7.43;3.70;;;15.30;1.00;;;;;;5013804;28;20185;-72
2022/07/09 02:02:48;;;;;;;8.43;3.90;;;15.30;1.00;;;;;;5021813;28;20179;-72
2022/07/09 02:05:14;;;;;;;4.90;4.00;;;15.30;1.00;;;;;;4990395;28;20439;-72
2022/07/09 02:07:39;;;;;;;9.13;4.50;;;15.20;1.00;;;;;;5006644;28;20194;-72
2022/07/09 02:10:05;;;;;;;6.40;4.17;;;15.10;1.00;;;;;;5008417;28;20174;-74
2022/07/09 02:12:31;;;;;;;8.60;4.03;;;15.00;1.00;;;;;;5022982;28;20684;-72
2022/07/09 02:14:57;;;;;;;8.83;4.10;;;15.00;1.00;;;;;;4989786;28;20265;-71
2022/07/09 02:17:22;;;;;;;6.30;4.27;;;14.90;1.00;;;;;;5007935;28;20231;-72
2022/07/09 02:19:48;;;;;;;10.13;4.30;;;14.90;1.00;;;;;;5000937;28;20673;-72
2022/07/09 02:22:13;;;;;;;5.63;4.30;;;14.80;1.00;;;;;;5012096;28;20177;-72
2022/07/09 02:24:39;;;;;;;6.40;4.07;;;14.80;1.00;;;;;;5010878;28;20687;-72
2022/07/09 02:27:05;;;;;;;5.00;4.10;;;14.70;1.00;;;;;;5007731;28;20198;-73
2022/07/09 02:29:31;;;;;;;12.90;4.57;;;14.70;1.00;;;;;;5009930;28;20181;-72
2022/07/09 02:31:57;;;;;;;11.63;4.70;;;14.70;1.00;;;;;;5014785;28;20464;-74
2022/07/09 02:34:23;;;;;;;8.07;4.00;;;14.70;1.00;;;;;;5005545;28;20191;-73
2022/07/09 02:36:48;;;;;;;4.67;4.13;;;14.70;1.00;;;;;;5005854;28;20456;-73
2022/07/09 02:39:14;;;;;;;5.20;4.37;;;14.70;1.00;;;;;;4989539;28;21003;-73
2022/07/09 02:41:39;;;;;;;7.83;4.47;;;14.70;1.00;;;;;;5008250;28;20186;-71
2022/07/09 02:44:05;;;;;;;7.90;4.40;;;14.60;1.00;;;;;;5012472;28;20178;-74
2022/07/09 02:46:30;;;;;;;6.60;3.97;;;14.60;1.00;;;;;;5010120;28;20258;-72
2022/07/09 02:48:56;;;;;;;4.97;3.93;;;14.60;1.00;;;;;;5012497;28;20162;-72
2022/07/09 02:51:21;;;;;;;6.67;4.10;;;14.60;1.00;;;;;;5026959;28;20208;-73
2022/07/09 02:53:47;;;;;;;4.70;4.17;;;14.50;1.00;;;;;;5015423;28;20265;-71
2022/07/09 02:56:12;;;;;;;8.10;4.90;;;14.80;1.00;;;;;;5014274;28;20206;-72
2022/07/09 02:58:38;;;;;;;5.30;3.83;;;14.50;1.00;;;;;;5005432;28;20179;-72
2022/07/09 03:01:06;;;;;;;5.40;3.83;;;14.40;1.00;;;;;;5018030;28;20190;-73
2022/07/09 03:03:36;;;;;;;6.30;4.23;;;14.40;1.00;;;;;;5005443;28;20644;-73
2022/07/09 03:06:02;;;;;;;7.17;4.50;;;14.30;1.00;;;;;;5023652;28;20424;-71
2022/07/09 03:08:28;;;;;;;7.77;4.40;;;14.20;1.00;;;;;;5020285;28;20429;-72
2022/07/09 03:10:54;;;;;;;5.83;4.00;;;14.10;1.00;;;;;;5013120;28;20958;-72
2022/07/09 03:13:20;;;;;;;6.57;4.53;;;14.10;1.00;;;;;;5007131;28;20185;-72
2022/07/09 03:15:45;;;;;;;6.17;4.30;;;14.10;1.00;;;;;;5010037;28;20177;-72
2022/07/09 03:18:11;;;;;;;6.00;4.67;;;14.10;1.00;;;;;;5021552;28;20202;-72
2022/07/09 03:20:37;;;;;;;6.97;4.70;;;14.20;1.00;;;;;;5005851;28;20178;-73
2022/07/09 03:23:06;;;;;;;8.43;4.47;;;14.10;1.00;;;;;;5009005;28;20174;-72
2022/07/09 03:25:32;;;;;;;6.33;4.17;;;14.10;1.00;;;;;;5026493;28;20174;-72
2022/07/09 03:27:57;;;;;;;5.33;4.30;;;14.00;1.00;;;;;;5025207;28;20515;-73
2022/07/09 03:30:23;;;;;;;5.70;4.23;;;14.00;1.00;;;;;;5016292;28;20614;-72
2022/07/09 03:32:49;;;;;;;5.37;4.30;;;14.10;1.00;;;;;;5019874;28;20292;-72
2022/07/09 03:35:15;;;;;;;6.47;4.63;;;14.00;1.00;;;;;;5001148;28;20214;-72
2022/07/09 03:37:41;;;;;;;5.20;4.10;;;14.00;1.00;;;;;;4991265;28;20465;-73
2022/07/09 03:40:07;;;;;;;5.90;4.13;;;14.00;1.00;;;;;;5009484;28;20229;-72
2022/07/09 03:42:32;;;;;;;6.23;4.40;;;14.00;1.00;;;;;;5008265;28;20205;-72
2022/07/09 03:44:58;;;;;;;5.87;3.83;;;14.00;1.00;;;;;;5010852;28;20414;-72
2022/07/09 03:47:23;;;;;;;6.20;4.43;;;14.00;1.00;;;;;;5009490;28;20285;-72
2022/07/09 03:49:49;;;;;;;8.50;4.10;;;14.00;1.00;;;;;;5008830;28;20210;-72
2022/07/09 03:52:15;;;;;;;4.20;3.80;;;14.00;1.00;;;;;;5005945;28;20233;-72
2022/07/09 03:54:40;;;;;;;4.67;4.17;;;14.00;1.00;;;;;;4992204;28;20185;-71
2022/07/09 03:57:06;;;;;;;5.90;4.50;;;14.00;1.00;;;;;;5010266;28;20286;-72
2022/07/09 03:59:31;;;;;;;7.90;4.40;;;14.00;1.00;;;;;;5009256;28;20186;-72
2022/07/09 04:01:57;;;;;;;10.80;4.30;;;14.10;1.00;;;;;;5008981;28;20264;-71
2022/07/09 04:04:22;;;;;;;7.30;4.57;;;14.10;1.00;;;;;;5008745;28;20628;-72
2022/07/09 04:06:48;;;;;;;7.27;4.47;;;14.10;1.00;;;;;;4991951;28;20218;-72
2022/07/09 04:09:13;;;;;;;6.30;4.43;;;14.10;1.00;;;;;;4986363;28;20279;-71
2022/07/09 04:11:39;;;;;;;4.43;4.03;;;14.10;1.00;;;;;;5017795;28;20198;-71
2022/07/09 04:14:04;;;;;;;6.37;4.40;;;14.10;1.00;;;;;;4992546;28;20174;-72
2022/07/09 04:16:30;;;;;;;5.10;4.53;;;14.20;1.00;;;;;;5024918;28;20190;-72
2022/07/09 04:18:55;;;;;;;8.97;4.60;;;14.10;1.00;;;;;;5014719;28;20262;-73
2022/07/09 04:21:21;;;;;;;12.40;4.90;;;14.20;1.00;;;;;;5017608;28;20265;-71
2022/07/09 04:23:50;;;;;;;5.73;4.77;;;14.20;1.00;;;;;;5013170;28;20560;-72
2022/07/09 04:26:18;;;;;;;7.43;4.40;;;14.20;1.00;;;;;;5011237;28;20300;-72
2022/07/09 04:28:44;;;;;;;7.23;4.60;;;14.20;1.00;;;;;;5020442;28;20445;-72
2022/07/09 04:31:10;;;;;;;9.40;5.20;;;14.30;1.00;;;;;;5022305;28;20474;-71
2022/07/09 04:33:35;;;;;;;5.83;4.50;;;14.40;1.00;;;;;;5007292;28;20441;-72
2022/07/09 04:36:01;;;;;;;5.80;4.67;;;14.60;1.00;;;;;;5006011;28;20221;-72
2022/07/09 04:38:26;;;;;;;9.07;5.10;;;14.50;1.00;;;;;;5008437;28;20256;-72
2022/07/09 04:40:52;;;;;;;5.63;4.77;;;14.60;1.00;;;;;;5008075;28;20174;-74
2022/07/09 04:43:18;;;;;;;10.10;4.47;;;14.70;1.00;;;;;;5009075;28;20241;-73
2022/07/09 04:45:43;;;;;;;8.03;5.30;;;14.70;1.00;;;;;;5009522;28;20260;-72
2022/07/09 04:48:10;;;;;;;6.47;4.40;;;;;;;;;;5006910;28;20236;-72
2022/07/09 04:50:35;;;;;;;8.23;4.90;;;14.90;1.00;;;;;;4990037;28;20692;-72
2022/07/09 04:53:01;;;;;;;6.20;4.73;;;15.00;1.00;;;;;;5007148;28;20615;-72
2022/07/09 04:55:26;;;;;;;7.33;4.93;;;15.10;1.00;;;;;;5007771;28;20182;-73
2022/07/09 04:57:52;;;;;;;8.40;4.90;;;;;;;;;;5007336;28;20308;-71
2022/07/09 05:00:18;;;;;;;6.90;5.60;;;15.30;1.00;;;;;;5014484;28;20178;-72
2022/07/09 05:02:44;;;;;;;8.73;5.53;;;15.40;1.00;;;;;;4992215;28;20433;-72
2022/07/09 05:05:10;;;;;;;8.90;5.37;;;15.50;1.00;;;;;;5009120;28;20175;-72
2022/07/09 05:07:36;;;;;;;5.30;4.70;;;15.60;1.00;;;;;;4989228;28;20450;-73
2022/07/09 05:10:02;;;;;;;8.50;4.70;;;15.70;1.00;;;;;;5015070;28;20424;-72
2022/07/09 05:12:31;;;;;;;6.27;4.90;;;15.80;1.00;;;;;;5012938;28;20205;-72
2022/07/09 05:14:57;;;;;;;7.07;5.37;;;15.80;1.00;;;;;;5008922;28;20440;-72
2022/07/09 05:17:23;;;;;;;6.27;4.80;;;15.90;1.00;;;;;;5019815;28;20437;-72
2022/07/09 05:19:49;;;;;;;8.80;5.00;;;16.00;1.00;;;;;;4989558;28;20270;-72
2022/07/09 05:22:15;;;;;;;7.70;5.47;;;16.10;1.00;;;;;;5006153;28;20433;-72
2022/07/09 05:24:41;;;;;;;6.93;4.90;;;16.20;1.00;;;;;;5007075;28;20445;-72
2022/07/09 05:27:09;;;;;;;8.17;4.97;;;16.30;1.00;;;;;;5012231;28;20206;-72
2022/07/09 05:29:35;;;;;;;8.17;5.13;;;19.20;1.00;;;;;;4995351;28;20191;-73
2022/07/09 05:32:00;;;;;;;6.33;4.90;;;16.50;1.00;;;;;;5008312;28;20462;-72
2022/07/09 05:34:26;;;;;;;5.70;4.97;;;16.70;1.00;;;;;;5007244;28;20209;-72
2022/07/09 05:36:51;;;;;;;9.97;5.37;;;16.80;1.00;;;;;;4990173;28;20250;-72
2022/07/09 05:39:18;;;;;;;6.33;5.17;;;;;;;;;;5007429;28;20326;-72
2022/07/09 05:41:43;;;;;;;6.90;5.13;;;17.10;1.00;;;;;;5009199;28;20193;-72
2022/07/09 05:44:09;;;;;;;5.77;4.80;;;17.20;1.00;;;;;;4999815;28;20437;-73
2022/07/09 05:46:35;;;;;;;8.30;5.30;;;17.40;1.00;;;;;;5010817;28;20282;-73
2022/07/09 05:49:00;;;;;;;11.27;5.57;;;17.60;1.00;;;;;;5006457;28;20185;-72
2022/07/09 05:51:26;;;;;;;8.03;5.33;;;17.70;1.00;;;;;;5006741;28;20194;-72
2022/07/09 05:53:51;;;;;;;8.60;5.10;;;17.90;1.00;;;;;;4988880;28;20186;-74
2022/07/09 05:56:17;;;;;;;7.43;5.63;;;19.30;1.00;;;;;;5008763;28;20205;-72
2022/07/09 05:58:42;;;;;;;8.90;5.33;;;18.00;1.00;;;;;;5008134;28;20186;-73
2022/07/09 06:01:08;;;;;;;8.73;5.70;;;18.70;1.00;;;;;;5014474;28;20249;-73
2022/07/09 06:03:34;;;;;;;8.73;5.23;;;18.20;1.00;;;;;;5007935;28;20370;-72
2022/07/09 06:06:00;;;;;;;6.50;5.20;;;18.20;1.00;;;;;;5007730;28;20264;-73
2022/07/09 06:08:25;;;;;;;5.83;5.03;;;18.30;1.00;;;;;;5006994;28;20449;-74
2022/07/09 06:10:51;;;;;;;9.63;5.23;;;18.40;1.00;;;;;;5006269;28;20174;-73
2022/07/09 06:13:17;;;;;;;6.43;5.10;;;18.60;1.00;;;;;;5004099;28;20249;-73
2022/07/09 06:15:43;;;;;;;10.33;5.43;;;18.70;1.00;;;;;;4988649;28;20512;-73
2022/07/09 06:18:09;;;;;;;9.47;5.23;;;18.80;1.00;;;;;;5006802;28;20439;-74
2022/07/09 06:20:34;;;;;;;8.90;5.43;;;18.80;1.00;;;;;;5004140;28;20268;-73
2022/07/09 06:23:00;;;;;;;7.17;4.90;;;18.80;1.00;;;;;;5006119;28;20170;-72
2022/07/09 06:25:25;;;;;;;10.40;5.77;;;18.70;1.00;;;;;;5006466;28;20187;-74
2022/07/09 06:27:51;;;;;;;7.20;4.97;;;18.70;1.00;;;;;;5007348;28;20284;-73
2022/07/09 06:30:17;;;;;;;10.70;5.70;;;18.80;1.00;;;;;;5013868;28;20260;-73
2022/07/09 06:32:42;;;;;;;8.47;5.97;;;18.80;1.00;;;;;;5015231;28;20703;-72
2022/07/09 06:35:08;;;;;;;8.63;5.17;;;18.90;1.00;;;;;;5003644;28;20329;-73
2022/07/09 06:37:33;;;;;;;8.10;5.10;;;19.00;1.00;;;;;;5001698;28;20486;-80
2022/07/09 06:39:59;;;;;;;10.30;5.20;;;19.30;1.00;;;;;;5005494;28;20186;-80
2022/07/09 06:42:25;;;;;;;7.37;5.10;;;19.40;1.00;;;;;;5006588;28;20182;-79
2022/07/09 06:44:50;;;;;;;7.60;5.03;;;19.70;1.00;;;;;;5006681;28;20525;-78
2022/07/09 06:47:16;;;;;;;8.37;4.93;;;19.70;1.00;;;;;;5012478;28;20197;-77
2022/07/09 06:49:42;;;;;;;10.57;5.50;;;19.90;1.00;;;;;;5017154;28;20270;-76
2022/07/09 06:52:07;;;;;;;8.60;5.80;;;20.00;1.00;;;;;;5013447;28;20193;-83
2022/07/09 06:54:34;;;;;;;8.10;4.87;;;20.10;1.00;;;;;;5011418;28;20181;-79
2022/07/09 06:56:59;;;;;;;6.77;4.97;;;20.20;1.00;;;;;;5007703;28;20288;-80
2022/07/09 06:59:25;;;;;;;10.63;4.97;;;20.20;1.00;;;;;;5016880;28;20570;-78
2022/07/09 07:01:51;;;;;;;8.07;5.73;;;20.30;1.00;;;;;;5008717;28;20678;-74
2022/07/09 07:04:17;;;;;;;8.70;5.50;;;20.30;1.00;;;;;;4989876;28;20694;-73
2022/07/09 07:06:43;;;;;;;6.63;4.80;;;20.30;1.00;;;;;;5025758;28;20610;-74
2022/07/09 07:09:09;;;;;;;9.20;5.13;;;20.30;1.00;;;;;;5009255;28;20216;-73
2022/07/09 07:11:35;;;;;;;8.40;5.17;;;20.30;1.00;;;;;;4988414;28;20554;-76
2022/07/09 07:14:00;;;;;;;6.73;4.57;;;20.40;1.00;;;;;;5011874;28;20212;-73
2022/07/09 07:16:26;;;;;;;7.33;5.00;;;20.50;1.00;;;;;;5020695;28;20201;-75
2022/07/09 07:18:53;;;;;;;6.33;4.50;;;;;;;;;;5014118;28;20189;-73
2022/07/09 07:21:18;;;;;;;7.63;4.57;;;20.70;1.00;;;;;;4989423;28;20375;-74
2022/07/09 07:23:44;;;;;;;8.20;4.33;;;20.80;1.00;;;;;;5008464;28;20569;-74
2022/07/09 07:26:10;;;;;;;6.83;4.20;;;;;;;;;;5005007;28;20260;-74
2022/07/09 07:28:36;;;;;;;7.60;4.43;;;;;;;;;;5017946;28;20567;-74
2022/07/09 07:31:01;;;;;;;5.70;4.00;;;21.50;1.00;;;;;;5011794;28;20181;-74
2022/07/09 07:33:27;;;;;;;11.00;4.70;;;21.80;1.00;;;;;;5011315;28;20166;-74
2022/07/09 07:35:52;;;;;;;8.57;4.40;;;21.90;1.00;;;;;;5013711;28;20541;-73
2022/07/09 07:38:18;;;;;;;5.60;4.17;;;22.00;1.00;;;;;;5012570;28;20228;-73
2022/07/09 07:40:43;;;;;;;7.67;4.10;;;22.20;1.00;;;;;;5014100;28;20240;-78
2022/07/09 07:43:12;;;;;;;5.83;4.20;;;22.40;1.00;;;;;;5018760;28;20256;-76
2022/07/09 07:45:38;;;;;;;7.57;4.07;;;22.70;1.00;;;;;;5032685;28;20165;-77
2022/07/09 07:48:04;;;;;;;8.53;3.87;;;23.10;1.00;;;;;;5034835;28;20852;-77
2022/07/09 07:50:29;;;;;;;5.70;3.63;;;23.30;1.00;;;;;;4999819;28;20190;-77
2022/07/09 07:52:55;;;;;;;6.20;3.83;;;23.60;1.00;;;;;;4995711;28;20194;-76
2022/07/09 07:55:20;;;;;;;6.33;3.43;;;24.00;1.00;;;;;;5015306;28;20251;-77
2022/07/09 07:57:46;;;;;;;7.60;3.87;;;23.90;1.00;;;;;;4996480;28;20200;-77
2022/07/09 08:00:12;;;;;;;5.50;3.70;;;24.00;1.00;;;;;;5017529;28;20630;-77
2022/07/09 08:02:38;;;;;;;9.80;4.23;;;24.10;1.00;;;;;;5007908;28;20513;-77
2022/07/09 08:05:04;;;;;;;4.63;3.73;;;24.30;1.00;;;;;;5013328;28;20166;-76
2022/07/09 08:07:30;;;;;;;5.83;3.57;;;24.50;1.00;;;;;;5012180;28;20201;-76
2022/07/09 08:09:56;;;;;;;7.00;3.83;;;24.70;1.00;;;;;;5013613;28;20723;-77
2022/07/09 08:12:21;;;;;;;6.43;3.57;;;25.00;1.00;;;;;;5011722;28;20547;-76
2022/07/09 08:14:47;;;;;;;5.33;3.43;;;25.20;1.00;;;;;;5012944;28;20170;-77
2022/07/09 08:17:12;;;;;;;6.13;3.67;;;25.30;1.00;;;;;;4993663;28;20281;-76
2022/07/09 08:19:38;;;;;;;9.60;3.60;;;25.50;1.00;;;;;;5020337;28;20200;-76
2022/07/09 08:22:04;;;;;;;7.50;3.73;;;25.70;1.00;;;;;;5013051;28;20368;-78
2022/07/09 08:24:29;;;;;;;7.63;3.10;;;25.90;1.00;;;;;;5014366;28;20229;-77
2022/07/09 08:26:55;;;;;;;7.40;4.00;;;26.30;1.00;;;;;;5013972;28;20208;-75
2022/07/09 08:29:20;;;;;;;5.30;3.70;;;26.40;1.00;;;;;;5024274;28;20551;-75
2022/07/09 08:31:49;;;;;;;6.60;3.40;;;26.40;1.00;;;;;;5018641;28;20194;-74
2022/07/09 08:34:14;;;;;;;6.37;3.30;;;26.50;1.00;;;;;;5018567;28;20266;-76
2022/07/09 08:36:40;;;;;;;5.73;3.27;;;26.70;1.00;;;;;;5000928;28;20244;-75
2022/07/09 08:39:05;;;;;;;7.13;3.80;;;26.90;1.00;;;;;;5010266;28;20625;-75
2022/07/09 08:41:31;;;;;;;5.97;3.10;;;26.60;1.00;;;;;;5010565;28;20185;-75
2022/07/09 08:43:57;;;;;;;7.23;3.50;;;26.60;1.00;;;;;;5021181;28;20181;-75
2022/07/09 08:46:22;;;;;;;5.03;3.30;;;27.10;1.00;;;;;;5022189;28;20220;-75
2022/07/09 08:48:49;;;;;;;4.30;2.93;;;27.70;1.00;;;;;;5010995;28;20178;-74
2022/07/09 08:51:14;;;;;;;7.00;3.40;;;28.10;1.00;;;;;;5010059;28;20325;-74
2022/07/09 08:53:42;;;;;;;5.37;3.83;;;28.30;1.00;;;;;;5010823;28;20173;-75
2022/07/09 08:56:08;;;;;;;5.67;3.93;;;28.50;1.00;;;;;;4993324;28;20190;-74
2022/07/09 08:58:34;;;;;;;6.17;3.40;;;28.60;1.00;;;;;;4985771;28;20688;-74
2022/07/09 09:01:00;;;;;;;5.47;3.30;;;28.70;1.00;;;;;;5014794;28;20177;-75
2022/07/09 09:03:26;;;;;;;6.37;3.23;;;;;;;;;;5024728;28;20227;-74
2022/07/09 09:06:05;;;;;;;6.47;3.40;;;29.30;1.00;;;;;;5012777;28;20199;-75
2022/07/09 09:08:44;;;;;;;5.37;3.00;;;29.90;1.00;;;;;;5011049;28;20182;-75
2022/07/09 09:11:22;;;;;;;7.70;2.92;;;30.80;1.00;;;;;;5010171;28;20170;-75
2022/07/09 09:13:49;;;;;;;5.25;3.20;;;32.70;1.00;;;;;;5009459;28;20181;-75
2022/07/09 09:16:16;;;;;;;7.97;3.25;;;33.10;1.00;;;;;;4998139;28;20383;-76
2022/07/09 09:18:43;;;;;;;9.15;3.05;;;34.40;1.00;;;;;;5021868;28;20190;-75
2022/07/09 09:21:10;;;;;;;5.40;3.42;;;34.60;1.00;;;;;;5009594;28;20576;-79
2022/07/09 09:23:53;;;;;;;7.00;3.60;;;33.70;1.00;;;;;;5010719;28;20185;-76
2022/07/09 09:26:21;;;;;;;5.85;2.85;;;34.00;1.00;;;;;;5005178;28;20421;-75
2022/07/09 09:28:49;;;;;;;4.90;2.85;;;34.10;1.00;;;;;;5003459;28;20186;-76
2022/07/09 09:31:18;;;;;;;5.88;3.20;;;34.40;1.00;;;;;;5027225;28;20169;-76
2022/07/09 09:33:44;;;;;;;7.85;3.08;;;33.00;1.00;;;;;;5030200;28;20213;-76
2022/07/09 09:36:10;;;;;;;5.88;2.20;;;31.50;1.00;;;;;;5029658;28;20379;-74
2022/07/09 09:38:35;;;;;;;6.32;3.40;;;30.30;1.00;;;;;;5025964;28;20587;-75
2022/07/09 09:41:01;;;;;;;5.78;3.22;;;29.90;1.00;;;;;;5015869;28;20666;-76
2022/07/09 09:43:27;;;;;;;6.32;3.28;;;29.90;1.00;;;;;;5030885;28;20172;-75
2022/07/09 09:45:55;;;;;;;6.93;3.67;;;31.00;1.00;;;;;;5031795;28;20205;-76
2022/07/09 09:48:23;;;;;;;4.97;3.08;;;30.90;1.00;;;;;;5020982;28;20174;-81
2022/07/09 09:50:50;;;;;;;4.82;3.40;;;31.70;1.00;;;;;;5010805;28;20173;-80
2022/07/09 09:53:17;;;;;;;6.25;3.67;;;31.60;1.00;;;;;;5025693;28;20201;-80
2022/07/09 09:55:43;;;;;;;10.40;3.25;;;31.30;1.00;;;;;;5023771;28;20401;-82
2022/07/09 09:58:09;;;;;;;5.90;2.97;;;31.40;1.00;;;;;;4992808;28;20386;-75
2022/07/09 10:00:35;;;;;;;5.47;3.28;;;32.90;1.00;;;;;;5006612;28;20597;-76
2022/07/09 10:03:01;;;;;;;7.43;3.00;;;34.50;1.00;;;;;;5008701;28;20174;-76
2022/07/09 10:05:27;;;;;;;8.65;3.53;;;34.70;1.00;;;;;;5009264;28;20191;-75
2022/07/09 10:07:53;;;;;;;6.72;3.42;;;33.80;1.00;;;;;;5011247;28;20597;-75
2022/07/09 10:10:20;;;;;;;5.43;3.50;;;32.80;1.00;;;;;;5013087;28;20169;-75
2022/07/09 10:12:45;;;;;;;5.45;3.60;;;32.80;1.00;;;;;;5029994;28;20205;-75
2022/07/09 10:15:24;;;;;;;4.75;3.28;;;33.70;1.00;;;;;;5031224;28;20219;-76
2022/07/09 10:17:50;;;;;;;5.07;3.65;;;34.40;1.00;;;;;;5028381;28;20209;-75
2022/07/09 10:20:16;;;;;;;4.35;3.50;;;34.70;1.00;;;;;;5024671;28;20210;-76
2022/07/09 10:22:46;;;;;;;5.28;3.75;;;34.00;1.00;;;;;;5017567;28;20228;-75
2022/07/09 10:25:22;;;;;;;5.22;3.53;;;33.00;1.00;;;;;;5014355;28;20654;-76
2022/07/09 10:27:51;;;;;;;7.20;3.80;;;32.10;1.00;;;;;;5013830;28;20200;-76
2022/07/09 10:30:28;;;;;;;5.43;3.85;;;30.90;1.00;;;;;;5009144;28;20185;-76
2022/07/09 10:33:10;;;;;;;6.28;4.00;;;30.10;1.00;;;;;;5011643;28;20201;-76
2022/07/09 10:35:43;;;;;;;12.80;4.80;;;29.60;1.00;;;;;;5003270;28;20221;-76
2022/07/09 10:38:09;;;;;;;7.90;4.32;;;28.90;1.00;;;;;;5009079;28;20288;-76
2022/07/09 10:40:40;;;;;;;9.95;4.50;;;28.50;1.00;;;;;;5012804;28;20232;-78
2022/07/09 10:43:05;;;;;;;9.80;5.32;;;28.50;1.00;;;;;;5026878;28;20189;-75
2022/07/09 10:45:47;;;;;;;7.15;5.13;;;28.50;1.00;;;;;;5010300;28;20178;-76
2022/07/09 10:48:15;;;;;;;7.93;5.43;;;29.10;1.00;;;;;;4991782;28;20617;-76
2022/07/09 10:50:43;;;;;;;10.30;5.97;;;29.30;1.00;;;;;;5010352;28;20174;-76
2022/07/09 10:53:11;;;;;;;7.60;5.85;;;29.60;1.00;;;;;;5008493;28;20201;-76
2022/07/09 10:55:37;;;;;;;7.15;5.50;;;30.70;1.00;;;;;;5012725;28;20178;-77
2022/07/09 10:58:07;;;;;;;9.48;6.00;;;30.60;1.00;;;;;;5023044;28;20178;-76
2022/07/09 11:00:34;;;;;;;6.90;4.30;;;32.10;1.00;;;;;;4999321;28;20921;-76
2022/07/09 11:03:05;;;;;;;10.35;4.53;;;34.30;1.00;;;;;;5017522;28;20459;-77
2022/07/09 11:05:44;;;;;;;9.25;5.10;;;36.00;1.00;;;;;;5009953;28;20178;-79
2022/07/09 11:08:10;;;;;;;6.88;4.55;;;36.60;1.00;;;;;;5007247;28;20178;-77
2022/07/09 11:10:37;;;;;;;6.10;4.13;;;37.30;1.00;;;;;;5004945;28;20190;-77
2022/07/09 11:13:06;;;;;;;6.05;4.65;;;37.80;1.00;;;;;;5008269;28;20233;-77
2022/07/09 11:15:35;;;;;;;5.25;4.03;;;38.40;1.00;;;;;;5012293;28;20185;-79
2022/07/09 11:18:03;;;;;;;6.82;3.45;;;38.70;1.00;;;;;;5010080;28;21347;-78
2022/07/09 11:20:38;;;;;;;8.60;5.78;;;39.00;1.00;;;;;;5007290;28;20174;-77
2022/07/09 11:23:03;;;;;;;6.95;4.25;;;39.30;1.00;;;;;;5008384;28;20197;-78
2022/07/09 11:25:29;;;;;;;11.25;3.88;;;40.10;1.00;;;;;;5010389;28;20210;-78
2022/07/09 11:27:59;;;;;;;7.40;3.58;;;38.90;1.00;;;;;;5008368;28;20209;-78
2022/07/09 11:30:27;;;;;;;7.25;3.47;;;36.70;1.00;;;;;;5017408;28;20174;-77
2022/07/09 11:32:53;;;;;;;5.32;3.72;;;35.10;1.00;;;;;;5022022;28;20205;-80
2022/07/09 11:35:35;;;;;;;6.97;3.40;;;35.20;1.00;;;;;;5008126;28;20178;-77
2022/07/09 11:38:03;;;;;;;5.22;3.55;;;35.10;1.00;;;;;;5014938;28;20220;-77
2022/07/09 11:40:29;;;;;;;7.10;3.45;;;35.70;1.00;;;;;;5023800;28;20176;-77
2022/07/09 11:42:55;;;;;;;4.78;3.20;;;35.50;1.00;;;;;;5023801;28;20263;-78
2022/07/09 11:45:28;;;;;;;9.15;3.47;;;34.70;1.00;;;;;;4993748;28;20177;-77
2022/07/09 11:48:04;;;;;;;5.80;3.40;;;33.90;1.00;;;;;;4999100;28;20244;-77
2022/07/09 11:50:30;;;;;;;6.90;3.30;;;33.20;1.00;;;;;;5014906;28;20261;-78
2022/07/09 11:52:56;;;;;;;9.50;3.45;;;33.70;1.00;;;;;;5008174;28;20217;-77
2022/07/09 11:55:30;;;;;;;8.20;3.60;;;35.40;1.00;;;;;;5014860;28;20192;-77
2022/07/09 11:57:57;;;;;;;8.88;2.90;;;35.90;1.00;;;;;;5017237;28;20373;-77
2022/07/09 12:00:27;;;;;;;5.95;3.08;;;37.20;1.00;;;;;;5013331;28;20232;-77
2022/07/09 12:02:54;;;;;;;5.00;2.90;;;38.50;1.00;;;;;;5014514;28;20694;-77
2022/07/09 12:05:31;;;;;;;6.10;2.83;;;39.00;1.00;;;;;;5025287;28;20177;-77
2022/07/09 12:07:58;;;;;;;5.13;2.70;;;39.90;1.00;;;;;;5016681;28;20205;-77
2022/07/09 12:10:28;;;;;;;5.90;2.95;;;40.90;1.00;;;;;;4992571;28;20178;-79
2022/07/09 12:12:53;;;;;;;6.63;2.42;;;39.80;1.00;;;;;;5006647;28;20202;-78
2022/07/09 12:15:19;;;;;;;5.88;2.70;;;38.10;1.00;;;;;;5010866;28;20181;-77
2022/07/09 12:17:44;;;;;;;6.20;2.72;;;37.00;1.00;;;;;;5008031;28;20564;-77
2022/07/09 12:20:10;;;;;;;5.90;2.50;;;36.20;1.00;;;;;;5005469;28;20161;-77
2022/07/09 12:22:36;;;;;;;7.82;2.97;;;36.10;1.00;;;;;;5008514;28;20188;-77
2022/07/09 12:25:02;;;;;;;6.07;2.97;;;37.40;1.00;;;;;;5012274;28;20650;-78
2022/07/09 12:27:27;;;;;;;5.80;2.40;;;37.70;1.00;;;;;;5027233;28;20701;-77
2022/07/09 12:29:53;;;;;;;4.43;2.70;;;37.30;1.00;;;;;;5012798;28;20671;-77
2022/07/09 12:32:19;;;;;;;5.47;2.50;;;37.10;1.00;;;;;;5023648;28;20288;-77
2022/07/09 12:34:44;;;;;;;6.22;2.53;;;37.50;1.00;;;;;;5016004;28;20201;-77
2022/07/09 12:37:10;;;;;;;4.25;2.50;;;38.20;1.00;;;;;;5001869;28;20566;-77
2022/07/09 12:39:36;;;;;;;5.15;2.50;;;39.10;1.00;;;;;;5006920;28;20174;-77
2022/07/09 12:42:01;;;;;;;9.82;3.13;;;40.10;1.00;;;;;;5008562;28;20193;-77
2022/07/09 12:44:27;;;;;;;7.25;2.30;;;39.10;1.00;;;;;;5009104;28;20633;-77
2022/07/09 12:46:53;;;;;;;5.70;2.40;;;38.90;1.00;;;;;;5010525;28;20277;-77
2022/07/09 12:49:19;;;;;;;7.85;2.80;;;38.70;1.00;;;;;;5011130;28;20292;-77
2022/07/09 12:51:45;;;;;;;3.92;2.33;;;37.70;1.00;;;;;;5017632;28;20516;-76
2022/07/09 12:54:10;;;;;;;6.10;2.15;;;36.40;1.00;;;;;;5011891;28;20196;-76